Terminal Aerodrome Forecast
Issued by NWS Billings, MT

Home | Current Version | Previous Version | Text Only | Print | Product List | Glossary Off
Versions: 1 2 3 4 5 6 7 8 9 10 11 12 13 14 15

000
FTUS45 KBYZ 231517 AAB
TAFMLS
TAF AMD
KMLS 231517Z 2315/2412 31023G31KT P6SM VCSH BKN024 OVC060
     FM232200 33025KT P6SM BKN080
     FM240100 27018G28KT P6SM BKN060=

USA.gov is the U.S. government's official web portal to all federal, state and local government web resources and services.